Time;durP1;ratioP1;P1;durP2;ratioP2;P2;SDS_P1;SDS_P2;PMS_P1;PMS_P2;Temp;Humidity;BMP_temperature;BMP_pressure;BME280_temperature;BME280_humidity;BME280_pressure;Samples;Min_cycle;Max_cycle;Signal;HPM_P1;HPM_P2
2021/06/13 00:00:18;;;;;;;1.45;0.50;;;;;;;9.36;100.00;101004.59;5074343;28;20063;-55
2021/06/13 00:03:21;;;;;;;0.20;0.20;;;;;;;9.30;100.00;100992.47;5074772;28;20039;-56
2021/06/13 00:06:25;;;;;;;0.47;0.47;;;;;;;9.31;100.00;100996.81;5073947;28;20381;-53
2021/06/13 00:09:29;;;;;;;4.18;0.57;;;;;;;9.29;100.00;100988.13;5074749;28;20392;-55
2021/06/13 00:12:34;;;;;;;1.58;0.55;;;;;;;9.20;100.00;100987.97;5074777;28;20110;-54
2021/06/13 00:15:37;;;;;;;0.50;0.50;;;;;;;9.15;100.00;100976.19;5074886;28;20401;-54
2021/06/13 00:18:40;;;;;;;0.93;0.28;;;;;;;9.09;100.00;100972.38;5074411;28;20043;-55
2021/06/13 00:21:44;;;;;;;5.47;0.40;;;;;;;9.03;100.00;100974.13;5074539;28;20051;-55
2021/06/13 00:24:48;;;;;;;0.60;0.57;;;;;;;9.01;100.00;100976.56;5074657;28;20055;-55
2021/06/13 00:27:51;;;;;;;10.40;0.98;;;;;;;9.00;100.00;100986.13;5074522;28;20060;-56
2021/06/13 00:30:55;;;;;;;0.80;0.43;;;;;;;8.94;100.00;100976.72;5074399;28;20063;-55
2021/06/13 00:33:59;;;;;;;3.20;0.73;;;;;;;8.93;100.00;100977.97;5074428;28;20396;-55
2021/06/13 00:37:02;;;;;;;0.77;0.77;;;;;;;8.87;100.00;100974.16;5073482;28;20077;-55
2021/06/13 00:40:07;;;;;;;0.43;0.43;;;;;;;8.85;100.00;100973.81;5073760;28;20051;-55
2021/06/13 00:43:11;;;;;;;0.40;0.38;;;;;;;8.78;100.00;100974.00;5073957;28;20048;-56
2021/06/13 00:46:14;;;;;;;2.03;0.68;;;;;;;8.78;100.00;100978.78;5074259;28;20059;-55
2021/06/13 00:49:17;;;;;;;0.52;0.30;;;;;;;8.78;100.00;100978.78;5073156;28;20056;-55
2021/06/13 00:52:23;;;;;;;2.25;1.40;;;;;;;8.74;100.00;100983.63;5073882;28;20043;-55
2021/06/13 00:55:27;;;;;;;0.50;0.50;;;;;;;8.72;100.00;100974.97;5073546;28;20064;-55
2021/06/13 00:58:32;;;;;;;2.83;0.60;;;;;;;8.69;100.00;100981.38;5072921;28;20115;-55
2021/06/13 01:01:35;;;;;;;1.95;0.52;;;;;;;8.58;100.00;100976.09;5073375;28;20044;-55
2021/06/13 01:04:38;;;;;;;2.60;0.65;;;;;;;8.61;100.00;100975.25;5073908;28;20071;-55
2021/06/13 01:07:58;;;;;;;2.72;0.73;;;;;;;8.46;100.00;100967.69;5073513;28;20047;-55
2021/06/13 01:11:14;;;;;;;0.63;0.63;;;;;;;8.36;100.00;100961.16;5073857;28;20052;-55
2021/06/13 01:14:33;;;;;;;0.90;0.57;;;;;;;8.35;100.00;100973.50;5073658;28;20045;-55
2021/06/13 01:17:58;;;;;;;6.82;1.20;;;;;;;8.32;100.00;100968.81;5073251;28;20401;-55
2021/06/13 01:21:08;;;;;;;0.65;0.65;;;;;;;8.33;100.00;100973.16;5073569;28;20055;-55
2021/06/13 01:25:09;;;;;;;1.65;0.80;;;;;;;8.35;100.00;100976.28;5073365;28;20059;-55
2021/06/13 01:28:15;;;;;;;0.82;0.40;;;;;;;8.38;100.00;100972.66;5031119;28;20064;-55
2021/06/13 01:31:23;;;;;;;5.55;1.00;;;;;;;8.32;100.00;100974.34;5036282;28;20048;-55
2021/06/13 01:34:36;;;;;;;0.40;0.40;;;;;;;8.28;100.00;100960.56;5073075;28;20071;-55
2021/06/13 01:37:43;;;;;;;0.70;0.68;;;;;;;8.32;100.00;100966.81;5073037;28;20055;-55
2021/06/13 01:40:47;;;;;;;2.17;1.42;;;;;;;8.29;100.00;100970.44;5073013;28;20051;-55
2021/06/13 01:43:56;;;;;;;4.95;1.00;;;;;;;8.36;100.00;100963.94;5072920;28;20504;-55
2021/06/13 01:47:02;;;;;;;3.10;1.25;;;;;;;8.43;100.00;100958.22;5073229;28;20064;-55
2021/06/13 01:50:07;;;;;;;0.82;0.82;;;;;;;8.48;100.00;100966.03;5073038;28;20051;-55
2021/06/13 01:53:13;;;;;;;1.23;1.20;;;;;;;8.51;100.00;100965.16;5072650;28;20500;-55
2021/06/13 01:56:17;;;;;;;0.73;0.70;;;;;;;8.57;100.00;100962.66;5072609;28;20047;-55
2021/06/13 01:59:22;;;;;;;5.13;0.77;;;;;;;8.69;100.00;100964.72;5072817;28;20543;-55
2021/06/13 02:02:27;;;;;;;0.80;0.55;;;;;;;8.75;100.00;100972.09;5072557;28;20048;-55
2021/06/13 02:05:33;;;;;;;1.30;0.90;;;;;;;8.81;100.00;100964.03;5071961;28;20599;-55
2021/06/13 02:08:39;;;;;;;0.95;0.95;;;;;;;8.80;100.00;100960.47;5072179;28;20051;-55
2021/06/13 02:11:45;;;;;;;1.92;1.08;;;;;;;8.85;100.00;100979.38;5072286;28;20052;-55
2021/06/13 02:14:49;;;;;;;0.55;0.55;;;;;;;8.97;100.00;100970.31;5072682;28;20051;-55
2021/06/13 02:17:54;;;;;;;1.95;0.98;;;;;;;9.00;100.00;100969.44;5072265;28;20048;-54
2021/06/13 02:21:00;;;;;;;2.15;0.82;;;;;;;8.97;100.00;100975.88;5072651;28;20388;-55
2021/06/13 02:24:03;;;;;;;1.42;1.05;;;;;;;8.93;100.00;100961.31;5072226;28;20047;-55
2021/06/13 02:27:07;;;;;;;1.40;1.10;;;;;;;9.00;100.00;100966.66;5072203;28;20133;-55
2021/06/13 02:30:12;;;;;;;0.60;0.60;;;;;;;9.08;100.00;100959.69;5072316;28;20051;-55
2021/06/13 02:33:16;;;;;;;0.55;0.55;;;;;;;9.07;100.00;100962.94;5071646;28;20044;-55
2021/06/13 02:36:22;;;;;;;0.60;0.60;;;;;;;9.01;100.00;100962.66;5072155;28;20047;-55
2021/06/13 02:39:25;;;;;;;1.33;0.90;;;;;;;8.96;100.00;100954.88;5072202;28;20423;-55
2021/06/13 02:42:29;;;;;;;2.67;0.70;;;;;;;9.01;100.00;100964.66;5072281;28;20059;-55
2021/06/13 02:45:32;;;;;;;1.23;1.10;;;;;;;8.94;100.00;100960.06;5072281;28;20048;-54
2021/06/13 02:48:35;;;;;;;0.90;0.90;;;;;;;8.90;100.00;100969.75;5071862;28;20427;-55
2021/06/13 02:51:57;;;;;;;0.70;0.70;;;;;;;8.90;100.00;100962.16;5072039;28;20511;-55
2021/06/13 02:55:02;;;;;;;1.17;1.08;;;;;;;8.92;100.00;100956.94;5071860;28;20044;-54
2021/06/13 02:58:22;;;;;;;0.77;0.45;;;;;;;8.91;100.00;100960.16;5071886;28;20049;-55
2021/06/13 03:01:26;;;;;;;0.60;0.60;;;;;;;8.91;100.00;100958.19;5071050;28;20055;-55
2021/06/13 03:04:30;;;;;;;1.55;0.70;;;;;;;8.90;100.00;100953.06;5072101;28;20059;-55
2021/06/13 03:07:34;;;;;;;0.38;0.38;;;;;;;8.83;100.00;100953.25;5075453;28;20055;-54
2021/06/13 03:10:37;;;;;;;0.75;0.50;;;;;;;8.67;100.00;100948.50;5075628;28;20500;-54
2021/06/13 03:13:43;;;;;;;0.35;0.35;;;;;;;8.63;100.00;100947.03;5075522;28;20047;-55
2021/06/13 03:16:47;;;;;;;2.92;0.93;;;;;;;8.57;100.00;100944.00;5075837;28;20039;-55
2021/06/13 03:19:51;;;;;;;1.20;0.90;;;;;;;8.48;100.00;100932.72;5075599;28;20393;-55
2021/06/13 03:22:56;;;;;;;1.27;1.02;;;;;;;8.48;100.00;100937.50;5075547;28;20044;-55
2021/06/13 03:26:02;;;;;;;0.35;0.35;;;;;;;8.51;100.00;100931.84;5074713;28;20044;-54
2021/06/13 03:29:07;;;;;;;2.17;0.52;;;;;;;8.55;100.00;100940.88;5075481;28;20051;-54
2021/06/13 03:32:13;;;;;;;0.30;0.30;;;;;;;8.65;100.00;100939.81;5075500;28;20491;-55
2021/06/13 03:35:18;;;;;;;0.73;0.73;;;;;;;8.69;100.00;100937.72;5075291;28;20055;-55
2021/06/13 03:38:23;;;;;;;0.50;0.50;;;;;;;8.65;100.00;100944.59;5075271;28;20040;-55
2021/06/13 03:41:27;;;;;;;0.43;0.43;;;;;;;8.73;100.00;100946.75;5075144;28;20043;-54
2021/06/13 03:44:31;;;;;;;1.65;0.65;;;;;;;8.69;100.00;100942.50;5075343;28;20051;-55
2021/06/13 03:47:35;;;;;;;0.77;0.77;;;;;;;8.63;100.00;100950.59;5074862;28;20396;-54
2021/06/13 03:50:42;;;;;;;0.30;0.30;;;;;;;8.56;100.00;100956.31;5074949;28;20397;-55
2021/06/13 03:53:53;;;;;;;6.05;0.90;;;;;;;8.50;100.00;100957.28;5074968;28;20059;-54
2021/06/13 03:57:04;;;;;;;2.83;0.80;;;;;;;8.57;100.00;100968.22;5074510;28;20055;-54
2021/06/13 04:00:09;;;;;;;0.63;0.52;;;;;;;8.59;100.00;100966.56;5075031;28;20056;-55
2021/06/13 04:03:14;;;;;;;1.55;0.90;;;;;;;8.66;100.00;100971.94;5074966;28;20392;-54
2021/06/13 04:06:25;;;;;;;0.75;0.75;;;;;;;8.73;100.00;100977.28;5074903;28;20503;-54
2021/06/13 04:09:28;;;;;;;1.48;0.85;;;;;;;8.74;100.00;100973.31;5074755;28;20055;-55
2021/06/13 04:12:33;;;;;;;0.57;0.38;;;;;;;8.72;100.00;100970.19;5074610;28;20519;-54
2021/06/13 04:15:38;;;;;;;0.77;0.38;;;;;;;8.72;100.00;100975.75;5074606;28;20397;-54
2021/06/13 04:18:42;;;;;;;4.53;1.08;;;;;;;8.67;100.00;100967.16;5074310;28;20075;-54
2021/06/13 04:21:47;;;;;;;1.20;0.68;;;;;;;8.62;100.00;100976.78;5074519;28;20527;-54
2021/06/13 04:24:53;;;;;;;0.65;0.65;;;;;;;8.59;100.00;100966.56;5074285;28;20048;-54
2021/06/13 04:27:59;;;;;;;0.43;0.43;;;;;;;8.53;100.00;100979.41;5074455;28;20413;-54
2021/06/13 04:31:02;;;;;;;1.23;0.88;;;;;;;8.61;100.00;100980.00;5074201;28;20059;-54
2021/06/13 04:34:06;;;;;;;0.88;0.85;;;;;;;8.63;100.00;100977.56;5074308;28;20063;-54
2021/06/13 04:37:10;;;;;;;0.70;0.70;;;;;;;8.66;100.00;100983.06;5074473;28;20039;-55
2021/06/13 04:40:13;;;;;;;0.95;0.80;;;;;;;8.64;100.00;100982.69;5074535;28;20080;-54
2021/06/13 04:43:17;;;;;;;1.75;1.25;;;;;;;8.65;100.00;100975.91;5074385;28;20055;-54
2021/06/13 04:46:22;;;;;;;1.08;0.98;;;;;;;8.72;100.00;100984.09;5074222;28;20040;-54
2021/06/13 04:49:25;;;;;;;0.60;0.60;;;;;;;8.77;100.00;100986.31;5074012;28;20063;-55
2021/06/13 04:52:30;;;;;;;3.10;0.98;;;;;;;8.79;100.00;100986.66;5073737;28;20498;-55
2021/06/13 04:55:47;;;;;;;1.10;0.60;;;;;;;8.85;100.00;100996.03;5072942;28;20056;-54
2021/06/13 04:58:51;;;;;;;0.63;0.50;;;;;;;8.91;100.00;100999.84;5074153;28;20067;-55
2021/06/13 05:01:54;;;;;;;1.17;0.80;;;;;;;8.99;100.00;101006.00;5073809;28;20051;-54
2021/06/13 05:04:57;;;;;;;1.85;0.85;;;;;;;9.08;100.00;101001.38;5074083;28;20039;-54
2021/06/13 05:08:03;;;;;;;4.30;1.17;;;;;;;9.20;100.00;101013.00;5074044;28;20059;-55
2021/06/13 05:11:10;;;;;;;2.63;1.25;;;;;;;9.25;100.00;101006.91;5072997;28;20507;-54
2021/06/13 05:14:13;;;;;;;0.80;0.40;;;;;;;9.36;100.00;101001.81;5073639;28;20055;-55
2021/06/13 05:17:17;;;;;;;1.60;0.85;;;;;;;9.41;100.00;101004.84;5073491;28;20073;-54
2021/06/13 05:20:20;;;;;;;4.47;1.05;;;;;;;9.48;100.00;101001.88;5073481;28;20047;-54
2021/06/13 05:23:24;;;;;;;2.05;1.05;;;;;;;9.53;100.00;101006.13;5073292;28;20071;-54
2021/06/13 05:26:29;;;;;;;0.75;0.47;;;;;;;9.63;100.00;100993.91;5073166;28;20501;-55
2021/06/13 05:29:32;;;;;;;1.20;0.82;;;;;;;9.78;100.00;101000.63;5071522;28;20055;-54
2021/06/13 05:32:35;;;;;;;1.95;0.75;;;;;;;9.83;100.00;101008.44;5072934;28;20503;-55
2021/06/13 05:35:41;;;;;;;0.95;0.80;;;;;;;9.92;100.00;101005.75;5072766;28;20039;-55
2021/06/13 05:38:44;;;;;;;1.70;0.65;;;;;;;9.99;100.00;100999.97;5072805;28;20047;-55
2021/06/13 05:41:48;;;;;;;0.65;0.60;;;;;;;10.11;100.00;100990.13;5072871;28;20040;-54
2021/06/13 05:44:51;;;;;;;0.55;0.43;;;;;;;10.21;100.00;100995.34;5073052;28;20044;-55
2021/06/13 05:47:54;;;;;;;0.57;0.38;;;;;;;10.34;100.00;100993.34;5072681;28;20055;-54
2021/06/13 05:51:00;;;;;;;2.72;1.52;;;;;;;10.49;100.00;100999.22;5072887;28;20047;-54
2021/06/13 05:54:04;;;;;;;0.75;0.50;;;;;;;10.61;100.00;100990.84;5072715;28;20043;-55
2021/06/13 05:57:07;;;;;;;0.55;0.45;;;;;;;10.72;100.00;100998.09;5072853;28;20048;-55
2021/06/13 06:00:17;;;;;;;1.35;0.90;;;;;;;10.83;100.00;100995.72;5072859;28;20048;-55
2021/06/13 06:03:22;;;;;;;1.80;0.52;;;;;;;10.95;100.00;101003.28;5072732;28;20412;-55
2021/06/13 06:06:25;;;;;;;7.68;0.68;;;;;;;11.07;100.00;100996.88;5072488;28;20047;-55
2021/06/13 06:09:29;;;;;;;1.05;0.50;;;;;;;11.17;100.00;100998.53;5072498;28;20044;-55
2021/06/13 06:12:32;;;;;;;3.25;0.70;;;;;;;11.40;100.00;100995.28;5072220;28;20048;-54
2021/06/13 06:15:37;;;;;;;6.10;0.85;;;;;;;11.49;100.00;100995.38;5072302;28;20047;-55
2021/06/13 06:18:41;;;;;;;0.30;0.30;;;;;;;11.62;100.00;101007.25;5072491;28;20484;-55
2021/06/13 06:21:44;;;;;;;1.55;0.32;;;;;;;11.76;100.00;101011.56;5072338;28;20436;-55
2021/06/13 06:24:48;;;;;;;1.33;0.55;;;;;;;11.91;100.00;101012.56;5072306;28;20549;-55
2021/06/13 06:27:52;;;;;;;0.73;0.30;;;;;;;12.11;100.00;101010.97;5072190;28;20047;-53
2021/06/13 06:30:56;;;;;;;2.70;0.40;;;;;;;12.28;100.00;101013.53;5072236;28;20067;-54
2021/06/13 06:33:59;;;;;;;1.75;0.98;;;;;;;12.53;100.00;101018.91;5072538;28;20043;-55
2021/06/13 06:37:04;;;;;;;0.68;0.65;;;;;;;12.64;100.00;101013.66;5072261;28;20115;-55
2021/06/13 06:40:09;;;;;;;2.70;0.43;;;;;;;12.76;100.00;101015.53;5072019;28;20051;-55
2021/06/13 06:43:12;;;;;;;0.70;0.30;;;;;;;12.98;100.00;101015.41;5071955;28;20508;-55
2021/06/13 06:46:16;;;;;;;1.02;0.63;;;;;;;13.15;100.00;101016.72;5071633;28;20499;-54
2021/06/13 06:49:19;;;;;;;1.00;0.60;;;;;;;13.30;100.00;101020.44;5071754;28;20051;-55
2021/06/13 06:52:23;;;;;;;3.38;1.33;;;;;;;13.41;100.00;101015.94;5071040;28;20048;-54
2021/06/13 06:55:27;;;;;;;1.25;0.50;;;;;;;13.62;100.00;101020.59;5071834;28;20413;-55
2021/06/13 06:58:30;;;;;;;0.60;0.60;;;;;;;13.89;100.00;101019.00;5071855;28;20047;-55
2021/06/13 07:01:34;;;;;;;1.30;0.90;;;;;;;13.96;100.00;101007.47;5072112;28;20051;-55
2021/06/13 07:04:38;;;;;;;14.43;1.30;;;;;;;14.00;100.00;101006.06;5071794;28;20044;-55
2021/06/13 07:07:42;;;;;;;1.27;0.55;;;;;;;14.13;100.00;101015.06;5071797;28;20444;-55
2021/06/13 07:10:46;;;;;;;3.70;1.02;;;;;;;14.28;100.00;101006.75;5072284;28;20488;-55
2021/06/13 07:13:49;;;;;;;1.80;0.75;;;;;;;14.36;100.00;101007.97;5071731;28;20059;-55
2021/06/13 07:16:53;;;;;;;1.60;0.50;;;;;;;14.39;100.00;101009.84;5071755;28;20063;-55
2021/06/13 07:19:57;;;;;;;11.05;1.70;;;;;;;14.51;100.00;101016.50;5071746;28;20516;-55
2021/06/13 07:23:00;;;;;;;3.25;0.65;;;;;;;14.66;100.00;101009.69;5071606;28;20040;-54
2021/06/13 07:26:03;;;;;;;1.25;0.63;;;;;;;15.04;100.00;100998.56;5071980;28;20056;-55
2021/06/13 07:29:07;;;;;;;0.73;0.40;;;;;;;15.18;100.00;101003.44;5071786;28;20107;-55
2021/06/13 07:32:10;;;;;;;2.00;0.98;;;;;;;15.39;100.00;101009.97;5071759;28;20048;-55
2021/06/13 07:35:14;;;;;;;4.72;1.05;;;;;;;15.53;100.00;101008.47;5071969;28;20524;-54
2021/06/13 07:38:18;;;;;;;1.40;0.60;;;;;;;15.61;100.00;101002.03;5071718;28;20044;-54
2021/06/13 07:41:21;;;;;;;0.80;0.57;;;;;;;15.78;100.00;101002.31;5071547;28;20078;-55
2021/06/13 07:44:26;;;;;;;2.15;0.93;;;;;;;15.95;100.00;101006.19;5071877;28;20052;-55
2021/06/13 07:47:31;;;;;;;3.80;1.15;;;;;;;16.23;100.00;101001.03;5071348;28;20059;-55
2021/06/13 07:50:35;;;;;;;0.38;0.28;;;;;;;16.32;100.00;101001.69;5071345;28;20063;-55
2021/06/13 07:53:44;;;;;;;2.65;1.02;;;;;;;16.36;100.00;100995.88;5074584;28;20061;-54
2021/06/13 07:56:48;;;;;;;1.75;0.32;;;;;;;16.52;100.00;100996.13;5074957;28;20040;-54
2021/06/13 07:59:52;;;;;;;1.58;1.05;;;;;;;16.64;100.00;100991.47;5074816;28;20118;-54
2021/06/13 08:02:55;;;;;;;2.08;0.52;;;;;;;16.83;100.00;100992.75;5074883;28;20511;-54
2021/06/13 08:05:59;;;;;;;3.55;0.90;;;;;;;16.96;100.00;100989.56;5074911;28;20055;-54
2021/06/13 08:09:03;;;;;;;2.90;0.60;;;;;;;17.08;100.00;100991.28;5075042;28;20055;-54
2021/06/13 08:12:07;;;;;;;3.05;0.93;;;;;;;17.23;100.00;100994.78;5074632;28;20071;-54
2021/06/13 08:15:11;;;;;;;3.72;0.82;;;;;;;17.42;100.00;100994.00;5075023;28;20056;-52
2021/06/13 08:18:15;;;;;;;1.65;0.90;;;;;;;17.71;100.00;100998.69;5074591;28;20044;-52
2021/06/13 08:21:18;;;;;;;2.03;0.47;;;;;;;18.02;100.00;100995.09;5074651;28;20051;-55
2021/06/13 08:24:22;;;;;;;1.48;0.52;;;;;;;18.29;100.00;101000.22;5074649;28;20400;-55
2021/06/13 08:27:29;;;;;;;2.53;0.50;;;;;;;18.59;100.00;101000.69;5074350;28;20047;-52
2021/06/13 08:30:32;;;;;;;4.22;1.08;;;;;;;18.76;100.00;100996.72;5074432;28;20052;-54
2021/06/13 08:33:36;;;;;;;1.08;0.47;;;;;;;19.10;100.00;101008.94;5074216;28;20047;-54
2021/06/13 08:36:40;;;;;;;1.90;0.60;;;;;;;19.61;100.00;101002.97;5074267;28;20067;-55
2021/06/13 08:39:43;;;;;;;1.83;0.30;;;;;;;20.06;100.00;101003.81;5074091;28;20047;-55
2021/06/13 08:42:48;;;;;;;1.90;0.28;;;;;;;20.33;100.00;100994.59;5074101;28;20523;-54
2021/06/13 08:45:55;;;;;;;4.28;0.65;;;;;;;20.43;100.00;100997.91;5074182;28;20072;-54
2021/06/13 08:48:59;;;;;;;1.38;0.32;;;;;;;20.44;100.00;101001.50;5074091;28;20075;-55
2021/06/13 08:52:03;;;;;;;2.38;0.40;;;;;;;20.38;100.00;101004.31;5073993;28;20052;-56
2021/06/13 08:55:08;;;;;;;1.95;1.10;;;;;;;20.35;100.00;101009.00;5073936;28;20047;-55
2021/06/13 08:58:14;;;;;;;1.55;0.32;;;;;;;20.52;100.00;101003.31;5073908;28;20048;-54
2021/06/13 09:01:18;;;;;;;0.50;0.10;;;;;;;20.58;100.00;100994.78;5073948;28;20076;-54
2021/06/13 09:04:22;;;;;;;2.00;0.50;;;;;;;20.68;100.00;101002.47;5073692;28;20040;-53
2021/06/13 09:07:26;;;;;;;2.28;0.45;;;;;;;20.85;100.00;100994.75;5073414;28;20043;-55
2021/06/13 09:10:31;;;;;;;0.82;0.47;;;;;;;20.89;100.00;100989.56;5073624;28;20048;-55
2021/06/13 09:13:37;;;;;;;2.88;0.50;;;;;;;20.94;100.00;100988.00;5073437;28;20055;-56
2021/06/13 09:16:45;;;;;;;1.90;0.10;;;;;;;21.04;100.00;100989.28;5073265;28;20039;-55
2021/06/13 09:20:25;;;;;;;0.40;0.20;;;;;;;21.01;100.00;100996.72;5073386;28;20047;-54
2021/06/13 09:23:30;;;;;;;2.87;0.40;;;;;;;21.19;100.00;100994.63;5073633;28;20043;-55
2021/06/13 09:26:34;;;;;;;3.63;0.73;;;;;;;21.38;100.00;100989.88;5073274;28;20158;-55
2021/06/13 09:29:51;;;;;;;0.80;0.40;;;;;;;21.33;100.00;100988.63;5073095;28;20404;-54
2021/06/13 09:33:16;;;;;;;1.23;0.47;;;;;;;21.49;100.00;100982.09;5073194;28;20051;-55
2021/06/13 09:36:25;;;;;;;1.25;0.10;;;;;;;21.64;100.00;100979.69;5072992;28;20047;-55
2021/06/13 09:39:29;;;;;;;0.90;0.73;;;;;;;21.63;100.00;100977.41;5073073;28;20059;-57
2021/06/13 09:42:37;;;;;;;3.85;0.32;;;;;;;21.62;100.00;100975.84;5073042;28;20052;-55
2021/06/13 09:45:53;;;;;;;1.63;0.47;;;;;;;21.70;100.00;100979.66;5072996;28;20051;-55
2021/06/13 09:49:06;;;;;;;4.05;0.32;;;;;;;21.81;100.00;100971.84;5073182;28;20526;-56
2021/06/13 09:52:10;;;;;;;2.63;0.88;;;;;;;21.83;100.00;100969.28;5072955;28;20055;-55
2021/06/13 09:55:15;;;;;;;2.10;0.22;;;;;;;21.99;100.00;100959.09;5072845;28;20051;-55
2021/06/13 09:58:18;;;;;;;3.72;0.20;;;;;;;22.09;100.00;100963.13;5071957;28;20067;-55
2021/06/13 10:01:25;;;;;;;0.60;0.10;;;;;;;22.15;100.00;100960.25;5072656;28;20052;-55
2021/06/13 10:04:32;;;;;;;1.45;0.22;;;;;;;22.25;100.00;100953.72;5072861;28;20044;-56
2021/06/13 10:07:35;;;;;;;0.77;0.20;;;;;;;22.50;100.00;100955.25;5072270;28;20511;-54
2021/06/13 10:10:42;;;;;;;0.20;0.20;;;;;;;22.74;100.00;100953.75;5071868;28;20063;-55
2021/06/13 10:13:49;;;;;;;0.60;0.30;;;;;;;22.94;100.00;100953.22;5071391;28;20047;-55
2021/06/13 10:16:55;;;;;;;2.45;0.22;;;;;;;23.16;100.00;100950.13;5072206;28;20048;-55
2021/06/13 10:19:58;;;;;;;0.85;0.10;;;;;;;23.11;100.00;100956.63;5072131;28;20055;-55
2021/06/13 10:23:04;;;;;;;1.50;0.40;;;;;;;22.98;100.00;100954.47;5072189;28;20051;-56
2021/06/13 10:26:08;;;;;;;2.13;0.32;;;;;;;23.02;100.00;100954.19;5072364;28;20055;-56
2021/06/13 10:29:14;;;;;;;1.05;0.20;;;;;;;23.09;100.00;100950.72;5072628;28;20051;-55
2021/06/13 10:32:21;;;;;;;1.55;0.20;;;;;;;23.14;100.00;100949.88;5072214;28;20056;-56
2021/06/13 10:35:25;;;;;;;1.00;0.30;;;;;;;23.13;100.00;100945.53;5072277;28;20051;-56
2021/06/13 10:38:29;;;;;;;2.05;0.20;;;;;;;23.15;100.00;100949.34;5072375;28;20051;-56
2021/06/13 10:41:32;;;;;;;0.10;0.03;;;;;;;23.18;100.00;100947.50;5072014;28;20056;-56
2021/06/13 10:44:48;;;;;;;1.15;0.20;;;;;;;23.24;100.00;100933.97;5072164;28;20051;-56
2021/06/13 10:48:06;;;;;;;5.07;0.13;;;;;;;23.30;100.00;100934.69;5072060;28;20102;-55
2021/06/13 10:51:30;;;;;;;2.95;0.28;;;;;;;23.38;100.00;100932.00;5072012;28;20106;-56
2021/06/13 10:54:44;;;;;;;0.98;0.17;;;;;;;23.43;100.00;100934.78;5071742;28;20047;-57
2021/06/13 10:57:47;;;;;;;0.40;0.10;;;;;;;23.71;100.00;100926.59;5071833;28;20051;-57
2021/06/13 11:01:25;;;;;;;3.53;0.10;;;;;;;23.86;100.00;100921.19;5071207;28;20051;-57
2021/06/13 11:04:44;;;;;;;1.13;0.60;;;;;;;23.87;100.00;100917.00;5071917;28;20507;-57
2021/06/13 11:07:50;;;;;;;0.73;0.15;;;;;;;23.72;100.00;100910.28;5072108;28;20051;-57
2021/06/13 11:10:54;;;;;;;0.82;0.10;;;;;;;23.80;100.00;100909.09;5071998;28;20102;-57
2021/06/13 11:14:28;;;;;;;5.95;0.20;;;;;;;23.85;100.00;100896.88;5071810;28;20503;-57
2021/06/13 11:18:01;;;;;;;0.55;0.10;;;;;;;23.93;100.00;100894.91;5071585;28;20071;-55
2021/06/13 11:21:25;;;;;;;2.35;0.50;;;;;;;23.99;100.00;100895.59;5072316;28;20412;-57
2021/06/13 11:24:48;;;;;;;1.40;0.30;;;;;;;24.52;100.00;100895.66;5071268;28;20051;-58
2021/06/13 11:28:23;;;;;;;1.17;0.10;;;;;;;24.63;100.00;100889.75;5073590;28;20067;-56
2021/06/13 11:31:27;;;;;;;1.17;0.10;;;;;;;24.36;100.00;100888.22;5075215;28;20063;-57
2021/06/13 11:34:46;;;;;;;0.38;0.20;;;;;;;24.35;100.00;100880.97;5075287;28;20055;-58
2021/06/13 11:38:09;;;;;;;0.45;0.10;;;;;;;24.08;100.00;100883.81;5075714;28;20043;-57
2021/06/13 11:41:26;;;;;;;1.40;0.38;;;;;;;24.11;100.00;100881.94;5075773;28;20063;-56
2021/06/13 11:44:40;;;;;;;0.30;0.10;;;;;;;24.12;100.00;100879.88;5075319;28;20519;-57
2021/06/13 11:47:43;;;;;;;0.43;0.10;;;;;;;24.12;100.00;100883.50;5075003;28;20492;-57
2021/06/13 11:51:10;;;;;;;1.10;0.20;;;;;;;24.71;100.00;100876.38;5075224;28;20075;-58
2021/06/13 11:54:34;;;;;;;0.47;0.05;;;;;;;24.90;100.00;100879.88;5075274;28;20040;-56
2021/06/13 11:57:38;;;;;;;0.20;0.10;;;;;;;24.57;100.00;100869.94;5075065;28;20059;-57
2021/06/13 12:00:42;;;;;;;2.30;0.10;;;;;;;24.60;100.00;100868.06;5074094;28;20511;-58
2021/06/13 12:03:46;;;;;;;0.10;0.00;;;;;;;24.60;100.00;100868.81;5074865;28;20436;-58
2021/06/13 12:06:50;;;;;;;2.85;0.20;;;;;;;24.92;100.00;100868.69;5075160;28;20047;-57
2021/06/13 12:09:54;;;;;;;0.75;0.13;;;;;;;25.35;100.00;100854.75;5074862;28;20519;-56
2021/06/13 12:13:07;;;;;;;0.10;0.10;;;;;;;25.32;100.00;100852.22;5074660;28;20063;-57
2021/06/13 12:16:15;;;;;;;1.92;0.10;;;;;;;25.58;100.00;100852.91;5074542;28;20051;-57
2021/06/13 12:19:29;;;;;;;0.10;0.00;;;;;;;26.05;100.00;100852.72;5074484;28;20543;-47
2021/06/13 12:29:10;;;;;;;2.13;0.10;;;;;;;25.98;100.00;100844.09;5074303;28;20040;-47
2021/06/13 12:32:15;;;;;;;0.40;0.00;;;;;;;25.37;100.00;100843.53;5074405;28;20051;-47
2021/06/13 12:35:19;;;;;;;0.70;0.13;;;;;;;25.63;100.00;100836.97;5073219;28;20051;-46
2021/06/13 12:38:26;;;;;;;0.40;0.10;;;;;;;25.58;100.00;100841.50;5073632;28;20126;-47
2021/06/13 12:41:30;;;;;;;1.30;0.10;;;;;;;26.04;100.00;100839.00;5073956;28;20047;-46
2021/06/13 12:44:35;;;;;;;0.32;0.10;;;;;;;25.56;100.00;100835.56;5073382;28;20051;-47
2021/06/13 12:47:44;;;;;;;2.95;0.20;;;;;;;25.37;100.00;100825.66;5073820;28;20491;-47
2021/06/13 12:50:47;;;;;;;0.13;0.00;;;;;;;25.28;100.00;100832.63;5073998;28;20052;-47
2021/06/13 12:53:54;;;;;;;0.75;0.10;;;;;;;25.91;100.00;100810.53;5073107;28;20052;-47
2021/06/13 12:56:58;;;;;;;0.13;0.10;;;;;;;25.77;100.00;100817.69;5074337;28;20063;-48
2021/06/13 13:00:03;;;;;;;0.45;0.10;;;;;;;25.65;100.00;100822.91;5073902;28;20514;-47
2021/06/13 13:03:11;;;;;;;1.55;0.10;;;;;;;25.98;100.00;100822.03;5073956;28;20051;-45
2021/06/13 13:06:15;;;;;;;0.55;0.10;;;;;;;26.05;100.00;100815.59;5073751;28;20397;-47
2021/06/13 13:09:18;;;;;;;0.10;0.00;;;;;;;25.94;100.00;100815.16;5073639;28;20063;-48
2021/06/13 13:12:21;;;;;;;0.30;0.00;;;;;;;25.67;100.00;100819.50;5073385;28;20047;-48
2021/06/13 13:15:29;;;;;;;0.35;0.00;;;;;;;25.27;100.00;100799.72;5073744;28;20048;-47
2021/06/13 13:18:40;;;;;;;4.28;0.00;;;;;;;25.06;100.00;100804.63;5073376;28;20407;-47
2021/06/13 13:21:46;;;;;;;1.75;0.10;;;;;;;24.90;100.00;100794.38;5073547;28;20043;-45
2021/06/13 13:24:50;;;;;;;1.83;0.10;;;;;;;25.06;100.00;100798.19;5073329;28;20048;-47
2021/06/13 13:27:53;;;;;;;0.10;0.00;;;;;;;25.15;100.00;100789.13;5073358;28;20052;-47
2021/06/13 13:31:00;;;;;;;1.33;0.00;;;;;;;25.33;100.00;100780.38;5073755;28;20420;-47
2021/06/13 13:34:07;;;;;;;0.20;0.10;;;;;;;25.16;100.00;100782.88;5073390;28;20095;-47
2021/06/13 13:37:15;;;;;;;0.40;0.20;;;;;;;25.04;100.00;100781.59;5073137;28;20043;-47
2021/06/13 13:40:20;;;;;;;0.57;0.10;;;;;;;24.85;100.00;100786.72;5073088;28;20083;-47
2021/06/13 13:43:24;;;;;;;1.92;0.38;;;;;;;24.85;100.00;100778.19;5072698;28;20051;-47
2021/06/13 13:46:40;;;;;;;0.10;0.00;;;;;;;25.04;100.00;100775.91;5072824;28;20071;-47
2021/06/13 13:49:44;;;;;;;0.10;0.00;;;;;;;24.87;100.00;100775.53;5072231;28;20102;-47
2021/06/13 13:52:48;;;;;;;2.83;0.20;;;;;;;24.71;100.00;100777.41;5072508;28;20055;-47
2021/06/13 13:55:57;;;;;;;0.82;0.00;;;;;;;24.67;100.00;100770.53;5071635;28;20063;-47
2021/06/13 13:59:01;;;;;;;0.33;0.07;;;;;;;24.71;100.00;100776.66;5072987;28;20504;-47
2021/06/13 14:02:05;;;;;;;1.13;0.10;;;;;;;24.58;100.00;100768.16;5072785;28;20288;-48
2021/06/13 14:05:09;;;;;;;0.10;0.00;;;;;;;24.75;100.00;100769.31;5072871;28;20075;-47
2021/06/13 14:08:13;;;;;;;0.13;0.03;;;;;;;25.01;100.00;100764.84;5072471;28;20047;-47
2021/06/13 14:11:17;;;;;;;1.20;0.10;;;;;;;25.51;100.00;100768.00;5072736;28;20400;-47
2021/06/13 14:14:21;;;;;;;0.17;0.10;;;;;;;25.84;100.00;100769.22;5072360;28;20047;-47
2021/06/13 14:17:25;;;;;;;0.10;0.00;;;;;;;25.65;100.00;100762.22;5072207;28;20107;-47
2021/06/13 14:20:28;;;;;;;1.05;0.10;;;;;;;25.08;100.00;100767.03;5072257;28;20048;-47
2021/06/13 14:23:33;;;;;;;1.60;0.03;;;;;;;25.06;100.00;100759.00;5072187;28;20107;-47
2021/06/13 14:26:37;;;;;;;0.00;0.00;;;;;;;24.74;100.00;100758.44;5071514;28;20047;-47